createdAt,value
2019-01-27T00:00:07.531Z,4.754639
2019-01-27T00:05:30.622Z,4.744568
2019-01-27T00:10:54.450Z,4.724426
2019-01-27T00:16:17.206Z,4.694214
2019-01-27T00:21:40.164Z,4.794922
2019-01-27T00:27:03.028Z,4.825134
2019-01-27T00:32:25.683Z,4.794922
2019-01-27T00:37:48.575Z,4.77478
2019-01-27T00:43:11.351Z,4.754639
2019-01-27T00:48:34.142Z,4.754639
2019-01-27T00:53:56.857Z,4.77478
2019-01-27T00:59:20.333Z,4.754639
2019-01-27T01:04:42.278Z,4.855347
2019-01-27T01:10:04.963Z,4.89563
2019-01-27T01:15:28.469Z,4.89563
2019-01-27T01:20:51.345Z,4.865417
2019-01-27T01:26:14.458Z,4.925842
2019-01-27T01:31:38.315Z,4.925842
2019-01-27T01:37:01.040Z,4.905701
2019-01-27T01:42:24.069Z,4.89563
2019-01-27T01:47:47.857Z,4.865417
2019-01-27T01:53:10.822Z,4.855347
2019-01-27T01:58:33.439Z,4.835205
2019-01-27T02:03:56.263Z,4.794922
2019-01-27T02:09:18.903Z,4.754639
2019-01-27T02:14:41.592Z,4.794922
2019-01-27T02:20:04.480Z,4.835205
2019-01-27T02:25:27.264Z,4.855347
2019-01-27T02:30:50.106Z,4.865417
2019-01-27T02:36:13.159Z,4.875488
2019-01-27T02:41:36.045Z,4.89563
2019-01-27T02:46:58.910Z,4.905701
2019-01-27T02:52:22.200Z,4.89563
2019-01-27T02:57:48.310Z,4.905701
2019-01-27T03:03:11.066Z,4.925842
2019-01-27T03:08:33.720Z,4.905701
2019-01-27T03:13:56.604Z,4.935913
2019-01-27T03:19:19.478Z,4.956055
2019-01-27T03:24:42.365Z,4.956055
2019-01-27T03:30:05.308Z,4.925842
2019-01-27T03:35:27.992Z,4.956055
2019-01-27T03:40:51.263Z,4.956055
2019-01-27T03:46:14.156Z,4.986267
2019-01-27T03:51:36.975Z,4.966125
2019-01-27T03:57:00.012Z,5.006409
2019-01-27T04:02:22.855Z,4.986267
2019-01-27T04:07:46.165Z,4.935913
2019-01-27T04:13:18.116Z,4.986267
2019-01-27T04:18:50.693Z,4.966125
2019-01-27T04:24:14.138Z,5.006409
2019-01-27T04:29:36.849Z,4.966125
2019-01-27T04:34:59.540Z,4.925842
2019-01-27T04:40:22.311Z,4.935913
2019-01-27T04:45:45.242Z,4.905701
2019-01-27T04:51:08.104Z,4.925842
2019-01-27T04:56:31.471Z,4.905701
2019-01-27T05:01:54.650Z,4.875488
2019-01-27T05:07:17.434Z,4.865417
2019-01-27T05:12:40.286Z,4.89563
2019-01-27T05:18:02.993Z,4.855347
2019-01-27T05:23:26.415Z,4.865417
2019-01-27T05:28:49.187Z,4.865417
2019-01-27T05:34:11.883Z,4.875488
2019-01-27T05:39:35.532Z,4.835205
2019-01-27T05:44:58.224Z,4.804993
2019-01-27T05:50:21.110Z,4.794922
2019-01-27T05:55:43.756Z,4.744568
2019-01-27T06:01:06.648Z,4.714355
2019-01-27T06:06:29.333Z,4.754639
2019-01-27T06:11:53.818Z,4.754639
2019-01-27T06:17:16.578Z,4.724426
2019-01-27T06:22:39.534Z,4.77478
2019-01-27T06:28:02.192Z,4.835205
2019-01-27T06:33:25.185Z,4.855347
2019-01-27T06:38:48.105Z,4.855347
2019-01-27T06:44:10.814Z,4.794922
2019-01-27T06:49:33.573Z,4.804993
2019-01-27T06:54:56.739Z,4.855347
2019-01-27T07:00:28.774Z,4.875488
2019-01-27T07:06:01.908Z,4.905701
2019-01-27T07:22:05.410Z,5.006409
2019-01-27T07:27:37.666Z,4.956055
2019-01-27T07:33:11.017Z,5.046692
2019-01-27T07:38:35.951Z,5.117188
2019-01-27T07:43:58.765Z,5.107117
2019-01-27T07:49:21.650Z,5.1474
2019-01-27T07:54:46.006Z,5.187683
2019-01-27T08:00:09.216Z,5.217896
2019-01-27T08:05:32.163Z,5.238037
2019-01-27T08:10:55.066Z,5.238037
2019-01-27T08:16:17.878Z,5.26825
2019-01-27T08:21:40.852Z,5.26825
2019-01-27T08:27:13.101Z,5.368958
2019-01-27T08:32:44.864Z,5.379028
2019-01-27T08:38:07.859Z,5.439453
2019-01-27T08:43:32.530Z,5.419312
2019-01-27T08:48:55.286Z,5.509949
2019-01-27T08:54:19.977Z,5.52002
2019-01-27T08:59:43.714Z,5.600586
2019-01-27T09:05:06.719Z,5.691223
2019-01-27T09:10:29.698Z,5.751648
2019-01-27T09:15:53.119Z,5.741577
2019-01-27T09:21:15.861Z,5.802002
2019-01-27T09:26:38.605Z,5.90271
2019-01-27T09:32:10.287Z,5.872498
2019-01-27T09:37:33.505Z,5.802002
2019-01-27T09:43:05.576Z,5.77179
2019-01-27T09:48:39.069Z,5.661011
2019-01-27T09:54:11.005Z,5.600586
2019-01-27T09:59:34.331Z,5.65094
2019-01-27T10:04:57.203Z,5.600586
2019-01-27T10:10:20.875Z,5.620728
2019-01-27T10:15:43.854Z,5.600586
2019-01-27T10:21:16.058Z,5.52002
2019-01-27T10:26:48.081Z,5.469666
2019-01-27T10:32:10.924Z,5.439453
2019-01-27T10:37:43.479Z,5.469666
2019-01-27T10:43:06.349Z,5.550232
2019-01-27T10:48:29.325Z,5.620728
2019-01-27T10:53:52.281Z,5.691223
2019-01-27T10:59:15.445Z,5.78186
2019-01-27T11:04:39.094Z,5.882568
2019-01-27T11:10:10.516Z,5.842285
2019-01-27T11:15:43.803Z,5.90271
2019-01-27T11:21:17.475Z,5.953064
2019-01-27T11:26:49.212Z,5.953064
2019-01-27T11:32:20.643Z,5.842285
2019-01-27T11:37:53.762Z,5.78186
2019-01-27T11:43:26.442Z,5.701294
2019-01-27T11:49:00.108Z,5.691223
2019-01-27T11:54:33.326Z,5.701294
2019-01-27T12:00:06.392Z,5.661011
2019-01-27T12:05:40.064Z,5.671082
2019-01-27T12:11:12.520Z,5.701294
2019-01-27T12:16:45.021Z,5.731506
2019-01-27T12:22:07.913Z,5.630798
2019-01-27T12:27:30.751Z,5.550232
2019-01-27T12:32:54.431Z,5.469666
2019-01-27T12:38:26.408Z,5.469666
2019-01-27T12:43:49.178Z,5.509949
2019-01-27T12:49:12.133Z,5.580444
2019-01-27T12:54:34.935Z,5.509949
2019-01-27T12:59:57.905Z,5.489807
2019-01-27T13:05:30.017Z,5.52002
2019-01-27T13:10:53.041Z,5.600586
2019-01-27T13:16:16.821Z,5.65094
2019-01-27T13:21:39.710Z,5.701294
2019-01-27T13:27:03.364Z,5.731506
2019-01-27T13:32:26.167Z,5.701294
2019-01-27T13:37:49.007Z,5.731506
2019-01-27T13:43:11.732Z,5.701294
2019-01-27T13:48:34.734Z,5.671082
2019-01-27T13:54:06.243Z,5.691223
2019-01-27T14:05:50.518Z,5.600586
2019-01-27T14:11:13.394Z,5.580444
2019-01-27T14:16:45.360Z,5.560303
2019-01-27T14:22:08.264Z,5.65094
2019-01-27T14:27:31.087Z,5.65094
2019-01-27T14:32:53.979Z,5.620728
2019-01-27T14:38:25.760Z,5.580444
2019-01-27T14:43:48.525Z,5.489807
2019-01-27T14:49:20.858Z,5.439453
2019-01-27T14:54:52.852Z,5.368958
2019-01-27T15:00:25.455Z,5.288391
2019-01-27T15:05:50.251Z,5.238037
2019-01-27T15:11:14.170Z,5.187683
2019-01-27T15:16:37.679Z,5.187683
2019-01-27T15:22:00.923Z,5.187683
2019-01-27T15:27:24.805Z,5.187683
2019-01-27T15:32:49.221Z,5.167542
2019-01-27T15:38:12.353Z,5.187683
2019-01-27T15:43:36.016Z,5.1474
2019-01-27T15:49:00.089Z,5.1474
2019-01-27T15:54:23.169Z,5.107117
2019-01-27T15:59:46.667Z,5.107117
2019-01-27T16:05:09.783Z,5.016479
2019-01-27T16:10:33.460Z,4.865417
2019-01-27T16:15:57.991Z,4.714355
2019-01-27T16:21:21.614Z,4.573364
2019-01-27T16:26:44.556Z,4.472656
2019-01-27T16:32:08.882Z,4.311523
2019-01-27T16:37:32.497Z,4.160461
2019-01-27T16:42:55.473Z,4.079895
2019-01-27T16:48:18.480Z,4.069824
2019-01-27T16:53:41.573Z,3.989258
2019-01-27T16:59:04.418Z,3.999329
2019-01-27T17:04:27.612Z,3.878479
2019-01-27T17:09:50.866Z,3.747559
2019-01-27T17:15:14.091Z,3.717346
2019-01-27T17:20:37.826Z,3.616638
2019-01-27T17:26:00.814Z,3.51593
2019-01-27T17:31:24.075Z,3.586426
2019-01-27T17:36:47.686Z,3.556213
2019-01-27T17:42:19.679Z,3.566284
2019-01-27T17:47:52.306Z,3.566284
2019-01-27T17:53:15.175Z,3.536072
2019-01-27T17:58:53.703Z,3.536072
2019-01-27T18:04:19.852Z,3.485718
2019-01-27T18:09:42.779Z,3.556213
2019-01-27T18:15:16.523Z,3.556213
2019-01-27T18:20:39.933Z,3.495789
2019-01-27T18:26:02.722Z,3.445435
2019-01-27T18:31:25.529Z,3.485718
2019-01-27T18:36:48.200Z,3.526001
2019-01-27T18:42:10.974Z,3.495789
2019-01-27T18:47:34.825Z,3.455505
2019-01-27T18:52:57.644Z,3.455505
2019-01-27T18:58:20.686Z,3.455505
2019-01-27T19:03:52.923Z,3.536072
2019-01-27T19:09:16.489Z,3.586426
2019-01-27T19:14:48.167Z,3.626709
2019-01-27T19:20:21.191Z,3.586426
2019-01-27T19:25:44.500Z,3.556213
2019-01-27T19:31:16.307Z,3.556213
2019-01-27T19:36:50.312Z,3.526001
2019-01-27T19:42:23.873Z,3.455505
2019-01-27T19:47:46.740Z,3.415222
2019-01-27T19:53:18.715Z,3.415222
2019-01-27T19:58:52.829Z,3.38501
2019-01-27T20:04:25.428Z,3.334656
2019-01-27T20:09:58.236Z,3.284302
2019-01-27T20:15:31.012Z,3.254089
2019-01-27T20:21:03.499Z,3.203735
2019-01-27T20:26:26.211Z,3.153381
2019-01-27T20:31:50.054Z,2.972107
2019-01-27T20:37:12.789Z,2.901611
2019-01-27T20:42:35.605Z,2.740479
2019-01-27T20:47:58.636Z,2.619629
2019-01-27T20:53:21.273Z,2.478638
2019-01-27T20:58:44.051Z,2.357788
2019-01-27T21:04:06.883Z,2.317505
2019-01-27T21:09:29.630Z,2.106018
2019-01-27T21:14:52.360Z,2.116089
2019-01-27T21:20:15.286Z,2.116089
2019-01-27T21:25:38.090Z,2.085876
2019-01-27T21:31:00.928Z,2.186584
2019-01-27T21:36:23.975Z,2.196655
2019-01-27T21:41:47.688Z,2.267151
2019-01-27T21:47:19.335Z,2.357788
2019-01-27T21:52:50.340Z,2.478638
2019-01-27T21:58:22.922Z,2.317505
2019-01-27T22:03:46.357Z,2.186584
2019-01-27T22:09:18.275Z,2.247009
2019-01-27T22:14:42.214Z,2.196655
2019-01-27T22:20:05.021Z,2.226868
2019-01-27T22:25:28.460Z,2.247009
2019-01-27T22:30:51.324Z,2.247009
2019-01-27T22:36:23.121Z,2.317505
2019-01-27T22:41:56.242Z,2.357788
2019-01-27T22:47:30.444Z,2.478638
2019-01-27T22:53:02.252Z,2.50885
2019-01-27T22:58:34.094Z,2.649841
2019-01-27T23:04:06.840Z,2.690125
2019-01-27T23:09:38.663Z,2.770691
2019-01-27T23:15:10.184Z,2.76062
2019-01-27T23:20:33.165Z,2.790833
2019-01-27T23:26:06.110Z,2.770691
2019-01-27T23:31:38.685Z,2.831116
2019-01-27T23:37:01.640Z,2.841187
2019-01-27T23:42:24.401Z,2.861328
2019-01-27T23:47:47.421Z,2.891541
2019-01-27T23:53:10.324Z,2.951965
2019-01-27T23:58:34.802Z,2.941895
